Time;durP1;ratioP1;P1;durP2;ratioP2;P2;SDS_P1;SDS_P2;PMS_P1;PMS_P2;Temp;Humidity;BMP_temperature;BMP_pressure;BME280_temperature;BME280_humidity;BME280_pressure;Samples;Min_cycle;Max_cycle;Signal;HPM_P1;HPM_P2
2023/06/16 11:26:32;;;;;;;7.65;5.25;;;;;;;;;;5017942;23;20881;-83
2023/06/16 11:28:58;;;;;;;6.07;5.13;;;;;;;;;;4976118;28;20470;-83
2023/06/16 11:31:25;;;;;;;5.60;4.57;;;26.90;35.10;;;;;;4996926;28;20425;-84
2023/06/16 11:33:54;;;;;;;6.10;5.50;;;27.20;37.00;;;;;;4998429;28;21011;-86
2023/06/16 11:36:22;;;;;;;8.00;5.33;;;26.70;35.80;;;;;;4999211;28;20515;-85
2023/06/16 11:38:52;;;;;;;6.10;5.50;;;26.70;37.00;;;;;;4996869;28;20819;-84
2023/06/16 11:41:20;;;;;;;6.63;5.03;;;26.60;37.40;;;;;;4982606;28;20478;-88
2023/06/16 11:43:46;;;;;;;6.87;5.07;;;26.70;36.90;;;;;;5000201;28;20478;-86
2023/06/16 11:46:12;;;;;;;7.83;5.43;;;27.50;37.20;;;;;;4997399;28;20466;-85
2023/06/16 11:48:38;;;;;;;6.57;4.57;;;;;;;;;;5003101;28;21012;-86
2023/06/16 11:51:05;;;;;;;6.87;5.30;;;27.00;35.70;;;;;;5005582;28;20436;-84
2023/06/16 11:53:31;;;;;;;5.30;4.50;;;26.60;36.90;;;;;;5000954;28;20755;-84
2023/06/16 11:55:59;;;;;;;5.10;4.70;;;27.50;38.00;;;;;;5005907;28;20479;-87
2023/06/16 11:58:27;;;;;;;5.13;4.60;;;27.20;37.20;;;;;;4990707;28;20556;-87
2023/06/16 12:00:59;;;;;;;7.70;5.73;;;26.90;36.50;;;;;;4989350;28;20526;-85
2023/06/16 12:03:29;;;;;;;5.83;4.83;;;27.80;37.90;;;;;;4997935;28;20433;-87
2023/06/16 12:05:56;;;;;;;7.73;4.60;;;27.40;37.70;;;;;;5001075;28;20543;-85
2023/06/16 12:08:45;;;;;;;5.47;4.90;;;27.20;37.20;;;;;;4995268;28;20988;-85
2023/06/16 12:11:29;;;;;;;9.10;5.13;;;26.70;36.20;;;;;;4993586;28;20447;-87
2023/06/16 12:13:56;;;;;;;6.00;4.10;;;26.80;35.70;;;;;;4999125;28;20801;-84
2023/06/16 12:16:22;;;;;;;7.77;5.13;;;26.80;36.00;;;;;;4997519;28;20478;-84
2023/06/16 12:18:50;;;;;;;4.90;4.43;;;26.80;36.30;;;;;;4998181;28;20540;-85
2023/06/16 12:21:23;;;;;;;8.83;5.07;;;26.60;36.30;;;;;;4990431;28;20449;-85
2023/06/16 12:23:57;;;;;;;7.67;5.00;;;26.60;36.90;;;;;;5000263;28;20439;-85
2023/06/16 12:26:40;;;;;;;7.13;5.20;;;26.20;37.10;;;;;;4997361;28;20460;-84
2023/06/16 12:29:29;;;;;;;4.53;4.13;;;26.10;37.80;;;;;;4998858;28;20448;-86
2023/06/16 12:31:56;;;;;;;8.73;4.70;;;26.40;39.30;;;;;;4970864;28;20441;-84
2023/06/16 12:34:38;;;;;;;9.30;5.63;;;26.90;38.50;;;;;;4999871;28;20439;-85
2023/06/16 12:37:10;;;;;;;6.57;6.00;;;26.90;38.90;;;;;;4998751;28;20960;-83
2023/06/16 12:39:37;;;;;;;8.70;5.10;;;27.10;39.20;;;;;;4985517;28;20438;-85
2023/06/16 12:42:05;;;;;;;5.63;4.80;;;26.60;38.60;;;;;;4995053;28;20440;-83
2023/06/16 12:44:45;;;;;;;6.40;5.20;;;26.60;39.20;;;;;;5000825;28;20437;-86
2023/06/16 12:47:15;;;;;;;6.77;5.63;;;27.20;40.00;;;;;;5002987;28;20525;-85
2023/06/16 12:49:41;;;;;;;5.47;4.70;;;27.30;39.30;;;;;;5004999;28;20435;-86
2023/06/16 12:52:07;;;;;;;7.57;5.80;;;27.60;40.00;;;;;;4991831;28;20438;-87
2023/06/16 12:54:33;;;;;;;6.70;5.73;;;27.40;39.10;;;;;;5004267;28;20431;-84
2023/06/16 12:56:59;;;;;;;8.30;6.17;;;26.90;38.20;;;;;;4985705;28;21084;-84
2023/06/16 12:59:24;;;;;;;6.20;5.00;;;26.90;38.90;;;;;;5000607;28;20197;-84
2023/06/16 13:01:50;;;;;;;10.10;4.90;;;27.00;38.70;;;;;;4984071;28;20193;-85
2023/06/16 13:04:15;;;;;;;5.10;4.60;;;27.00;38.10;;;;;;5001951;28;20196;-83
2023/06/16 13:06:41;;;;;;;5.27;4.77;;;27.00;38.90;;;;;;4996969;28;20271;-85
2023/06/16 13:09:06;;;;;;;8.30;6.30;;;27.00;38.70;;;;;;4999563;28;20185;-85
2023/06/16 13:11:33;;;;;;;5.97;5.33;;;26.60;39.40;;;;;;5000262;28;20283;-85
2023/06/16 13:13:59;;;;;;;6.23;5.43;;;26.40;40.00;;;;;;4986745;28;20187;-87
2023/06/16 13:16:25;;;;;;;8.83;5.20;;;27.30;37.60;;;;;;5000506;28;21000;-84
2023/06/16 13:18:50;;;;;;;6.37;5.10;;;27.40;37.90;;;;;;4999726;28;20276;-86
2023/06/16 13:21:16;;;;;;;9.43;5.57;;;27.00;38.20;;;;;;4999548;28;20453;-85
2023/06/16 13:23:44;;;;;;;5.63;5.10;;;26.80;38.60;;;;;;5000400;28;20192;-86
2023/06/16 13:26:11;;;;;;;10.93;6.07;;;27.70;40.20;;;;;;4999183;28;20208;-87
2023/06/16 13:28:40;;;;;;;6.20;5.60;;;26.50;39.00;;;;;;5000195;28;20719;-83
2023/06/16 13:31:09;;;;;;;6.90;5.33;;;26.50;39.50;;;;;;4999294;28;20447;-84
2023/06/16 13:33:38;;;;;;;5.47;4.97;;;26.40;38.50;;;;;;4999939;28;21018;-85
2023/06/16 13:36:08;;;;;;;6.93;5.13;;;26.10;39.20;;;;;;4997859;28;20448;-87
2023/06/16 13:38:34;;;;;;;6.27;5.23;;;25.80;39.60;;;;;;4996135;28;20458;-84
2023/06/16 13:41:00;;;;;;;6.07;4.97;;;;;;;;;;5000881;28;20444;-84
2023/06/16 13:43:26;;;;;;;5.43;4.27;;;26.10;40.60;;;;;;4998141;28;20608;-86
2023/06/16 13:45:51;;;;;;;5.40;4.70;;;26.30;40.40;;;;;;4995845;28;20472;-83
2023/06/16 13:48:19;;;;;;;5.00;4.50;;;26.50;40.50;;;;;;4997143;28;20459;-85
2023/06/16 13:50:45;;;;;;;5.53;5.00;;;26.70;39.60;;;;;;4985592;28;20191;-86
2023/06/16 13:53:11;;;;;;;7.13;5.47;;;26.60;40.50;;;;;;4982873;28;20464;-87
2023/06/16 13:55:37;;;;;;;5.47;4.97;;;27.20;40.70;;;;;;4984585;28;20181;-84
2023/06/16 13:58:03;;;;;;;9.30;5.93;;;27.10;40.50;;;;;;4996339;28;20450;-87
2023/06/16 14:00:29;;;;;;;6.30;5.70;;;27.30;38.70;;;;;;4982160;28;20478;-87
2023/06/16 14:02:55;;;;;;;6.60;5.10;;;27.00;36.70;;;;;;4997482;28;20452;-85
2023/06/16 14:05:22;;;;;;;7.80;5.70;;;27.80;37.60;;;;;;4999616;28;20689;-85
2023/06/16 14:07:47;;;;;;;5.73;5.20;;;27.10;38.00;;;;;;5002401;28;20474;-88
2023/06/16 14:10:16;;;;;;;5.50;4.93;;;28.80;39.60;;;;;;5004194;28;20456;-87
2023/06/16 14:12:44;;;;;;;7.00;6.30;;;27.20;37.80;;;;;;5003834;28;20199;-86
2023/06/16 14:15:13;;;;;;;7.87;5.00;;;26.90;38.90;;;;;;5001804;28;20476;-86
2023/06/16 14:17:40;;;;;;;6.40;5.30;;;26.80;38.80;;;;;;4982078;28;20565;-84
2023/06/16 14:20:07;;;;;;;5.27;4.40;;;26.70;38.70;;;;;;4999149;28;20448;-85
2023/06/16 14:22:34;;;;;;;5.23;4.83;;;26.80;38.50;;;;;;4991128;28;20544;-83
2023/06/16 14:25:00;;;;;;;5.47;4.97;;;27.00;38.40;;;;;;4998787;28;20939;-85
2023/06/16 14:27:26;;;;;;;6.70;5.40;;;26.60;37.10;;;;;;4996834;28;20483;-85
2023/06/16 14:29:51;;;;;;;6.00;5.10;;;26.60;37.60;;;;;;4994342;28;20644;-86
2023/06/16 14:32:17;;;;;;;8.73;4.90;;;26.60;38.80;;;;;;4992128;28;20445;-85
2023/06/16 14:34:43;;;;;;;6.97;4.87;;;26.70;38.80;;;;;;4980346;28;20191;-86
2023/06/16 14:37:08;;;;;;;6.80;5.10;;;26.20;38.90;;;;;;4999937;28;20206;-84
2023/06/16 14:39:34;;;;;;;5.80;4.90;;;26.20;39.20;;;;;;4994481;28;20199;-84
2023/06/16 14:41:59;;;;;;;7.07;5.80;;;26.20;39.00;;;;;;4998762;28;20635;-86
2023/06/16 14:44:25;;;;;;;7.10;4.70;;;26.60;39.50;;;;;;4997739;28;20504;-85
2023/06/16 14:46:52;;;;;;;6.03;4.80;;;26.60;39.90;;;;;;4998881;28;20345;-86
2023/06/16 14:49:17;;;;;;;5.67;5.20;;;26.70;39.80;;;;;;4979799;28;20198;-85
2023/06/16 14:51:44;;;;;;;7.53;5.23;;;;;;;;;;4998893;28;20435;-86
2023/06/16 14:54:10;;;;;;;5.60;4.70;;;26.50;38.50;;;;;;4998460;28;20310;-84
2023/06/16 14:56:36;;;;;;;5.33;4.87;;;26.70;39.40;;;;;;5000366;28;20525;-84
2023/06/16 14:59:02;;;;;;;5.37;4.83;;;26.70;39.80;;;;;;4987355;28;20447;-86
2023/06/16 15:01:28;;;;;;;6.77;5.00;;;26.70;40.00;;;;;;4995897;28;20532;-84
2023/06/16 15:03:53;;;;;;;5.50;4.50;;;26.70;39.40;;;;;;4986743;28;20509;-86
2023/06/16 15:06:20;;;;;;;5.90;5.40;;;26.40;38.70;;;;;;4997121;28;21833;-86
2023/06/16 15:08:46;;;;;;;6.70;5.10;;;;;;;;;;4998964;28;20188;-83
2023/06/16 15:11:12;;;;;;;6.10;5.40;;;26.60;40.20;;;;;;4986423;28;20506;-84
2023/06/16 15:13:37;;;;;;;7.33;5.73;;;26.50;38.30;;;;;;4999926;28;20448;-83
2023/06/16 15:16:03;;;;;;;5.20;4.70;;;26.50;38.70;;;;;;4987958;28;20809;-85
2023/06/16 15:18:29;;;;;;;7.43;5.50;;;26.50;40.10;;;;;;4986930;28;20211;-85
2023/06/16 15:20:55;;;;;;;5.83;4.53;;;27.30;39.80;;;;;;4996914;28;20185;-85
2023/06/16 15:23:21;;;;;;;6.30;5.20;;;26.70;39.10;;;;;;4983402;28;20446;-85
2023/06/16 15:25:46;;;;;;;6.50;5.90;;;26.40;38.20;;;;;;4997205;28;20208;-88
2023/06/16 15:28:13;;;;;;;6.63;5.27;;;26.40;39.40;;;;;;4997305;28;20239;-87
2023/06/16 15:30:39;;;;;;;5.70;5.10;;;26.20;39.80;;;;;;4998055;28;20252;-87
2023/06/16 15:33:04;;;;;;;5.60;5.10;;;25.90;40.70;;;;;;4999591;28;20434;-83
2023/06/16 15:35:30;;;;;;;5.73;5.20;;;;;;;;;;5000730;28;20837;-84
2023/06/16 15:37:56;;;;;;;7.33;5.50;;;25.40;40.50;;;;;;4996680;28;20212;-85
2023/06/16 15:40:21;;;;;;;5.70;5.10;;;25.40;41.80;;;;;;4996946;28;20438;-84
2023/06/16 15:42:47;;;;;;;5.30;4.80;;;;;;;;;;5001222;28;20769;-84
2023/06/16 15:45:12;;;;;;;6.67;4.43;;;25.90;40.90;;;;;;4995223;28;20546;-88
2023/06/16 15:47:38;;;;;;;5.87;5.27;;;25.90;39.80;;;;;;4995556;28;20874;-85
2023/06/16 15:50:05;;;;;;;6.83;5.10;;;25.90;40.30;;;;;;4974038;28;20221;-86
2023/06/16 15:52:31;;;;;;;5.30;4.63;;;26.10;41.40;;;;;;4989587;28;20186;-85
2023/06/16 15:54:57;;;;;;;5.97;5.40;;;26.10;40.70;;;;;;4990785;28;20441;-84
2023/06/16 15:57:23;;;;;;;5.57;4.93;;;26.20;40.80;;;;;;4980343;28;20566;-87
2023/06/16 15:59:48;;;;;;;5.87;5.27;;;26.00;40.00;;;;;;5001846;28;20481;-85
2023/06/16 16:02:14;;;;;;;5.17;4.30;;;26.20;40.40;;;;;;4999172;28;20198;-86
2023/06/16 16:04:39;;;;;;;5.67;5.13;;;26.40;40.60;;;;;;5001342;28;20182;-84
2023/06/16 16:07:05;;;;;;;7.17;4.90;;;26.40;40.30;;;;;;5001642;28;20215;-85
2023/06/16 16:09:31;;;;;;;7.80;4.83;;;26.40;39.80;;;;;;5001607;28;20675;-84
2023/06/16 16:11:57;;;;;;;5.67;4.87;;;26.40;40.00;;;;;;4989091;28;20456;-86
2023/06/16 16:14:23;;;;;;;6.67;5.50;;;26.80;40.60;;;;;;5001978;28;20220;-86
2023/06/16 16:16:48;;;;;;;8.07;5.10;;;26.50;40.00;;;;;;4984786;28;20464;-86
2023/06/16 16:19:16;;;;;;;5.07;4.33;;;;;;;;;;5003295;28;20605;-85
2023/06/16 16:21:41;;;;;;;6.93;5.30;;;26.70;39.80;;;;;;5004325;28;20195;-86
2023/06/16 16:24:09;;;;;;;5.80;5.20;;;26.70;40.50;;;;;;5001988;28;20437;-86
2023/06/16 16:26:34;;;;;;;6.43;4.33;;;26.60;39.00;;;;;;5005032;28;20202;-87
2023/06/16 16:29:00;;;;;;;6.90;4.53;;;26.60;39.50;;;;;;4998806;28;20450;-86
2023/06/16 16:31:25;;;;;;;5.03;4.53;;;26.50;39.40;;;;;;4999400;28;20192;-84
2023/06/16 16:33:51;;;;;;;7.47;4.80;;;26.20;38.70;;;;;;4987465;28;20191;-85
2023/06/16 16:36:17;;;;;;;8.77;5.60;;;26.20;39.50;;;;;;5004703;28;20177;-87
2023/06/16 16:38:43;;;;;;;5.70;5.13;;;26.20;38.60;;;;;;5006077;28;20463;-85
2023/06/16 16:41:08;;;;;;;5.10;4.60;;;26.20;39.70;;;;;;5002827;28;20187;-85
2023/06/16 16:43:34;;;;;;;5.93;5.40;;;26.20;40.60;;;;;;5002741;28;20674;-86
2023/06/16 16:46:00;;;;;;;6.93;4.60;;;26.50;40.30;;;;;;5000090;28;20214;-85
2023/06/16 16:48:26;;;;;;;4.97;4.10;;;26.20;39.00;;;;;;4990376;28;20459;-87
2023/06/16 16:50:54;;;;;;;5.90;5.20;;;26.90;40.10;;;;;;5002639;28;20265;-85
2023/06/16 16:53:20;;;;;;;7.13;5.57;;;25.60;40.50;;;;;;4990914;28;20782;-87
2023/06/16 16:55:46;;;;;;;5.43;4.93;;;25.70;40.10;;;;;;4991455;28;20445;-86
2023/06/16 16:58:13;;;;;;;5.13;4.63;;;25.70;40.50;;;;;;5003703;28;20469;-85
2023/06/16 17:00:39;;;;;;;8.50;4.87;;;;;;;;;;4993610;28;20231;-85
2023/06/16 17:03:05;;;;;;;7.10;5.53;;;25.90;40.90;;;;;;5003361;28;20981;-86
2023/06/16 17:05:31;;;;;;;5.90;4.90;;;26.10;41.50;;;;;;5017420;28;20446;-85
2023/06/16 17:07:57;;;;;;;7.50;5.17;;;26.20;40.80;;;;;;5010850;28;20660;-87
2023/06/16 17:10:35;;;;;;;8.60;5.13;;;26.30;41.60;;;;;;5018172;28;20473;-84
2023/06/16 17:13:04;;;;;;;7.20;4.97;;;26.40;41.50;;;;;;5005565;28;20193;-85
2023/06/16 17:15:30;;;;;;;4.87;4.40;;;26.20;40.40;;;;;;5012208;28;20426;-85
2023/06/16 17:17:55;;;;;;;6.47;5.20;;;26.20;40.00;;;;;;5009492;28;20449;-86
2023/06/16 17:20:21;;;;;;;5.60;5.10;;;25.90;40.60;;;;;;5001466;28;20192;-88
2023/06/16 17:22:46;;;;;;;4.73;4.30;;;25.90;41.90;;;;;;5014272;28;20183;-87
2023/06/16 17:25:12;;;;;;;5.40;4.90;;;25.70;41.70;;;;;;4998412;28;20187;-87
2023/06/16 17:27:37;;;;;;;6.30;5.00;;;25.60;42.30;;;;;;5024097;22;20303;-83
2023/06/16 17:30:03;;;;;;;5.17;4.67;;;25.50;42.30;;;;;;4996308;28;20206;-84
2023/06/16 17:32:29;;;;;;;11.17;4.80;;;25.20;42.80;;;;;;4994692;28;20175;-84
2023/06/16 17:34:55;;;;;;;5.40;4.47;;;25.20;43.00;;;;;;4985438;28;20483;-84
2023/06/16 17:37:20;;;;;;;6.00;4.20;;;25.30;43.70;;;;;;5008976;28;20202;-84
2023/06/16 17:39:46;;;;;;;6.03;4.90;;;24.90;43.70;;;;;;5000021;28;20686;-82
2023/06/16 17:42:13;;;;;;;16.70;5.10;;;24.80;44.10;;;;;;4987621;28;20206;-85
2023/06/16 17:44:38;;;;;;;7.80;5.37;;;24.80;44.40;;;;;;4999671;28;20655;-84
2023/06/16 17:47:06;;;;;;;4.90;4.33;;;25.00;45.00;;;;;;5007120;28;20464;-85
2023/06/16 17:49:32;;;;;;;5.27;4.77;;;25.00;45.50;;;;;;5003906;28;20197;-86
2023/06/16 17:51:58;;;;;;;4.73;4.13;;;25.10;45.60;;;;;;5005467;28;20473;-83
2023/06/16 17:54:23;;;;;;;5.87;4.47;;;25.00;45.40;;;;;;4987390;28;20186;-86
2023/06/16 17:56:49;;;;;;;6.23;4.70;;;25.30;46.60;;;;;;5012608;28;20684;-84
2023/06/16 17:59:15;;;;;;;5.40;4.50;;;24.80;47.20;;;;;;4982498;28;20235;-84
2023/06/16 18:01:41;;;;;;;8.87;4.57;;;24.80;46.80;;;;;;5006582;28;20182;-85
2023/06/16 18:04:07;;;;;;;5.00;4.50;;;24.90;46.10;;;;;;5003941;28;20982;-84
2023/06/16 18:06:33;;;;;;;7.47;4.60;;;26.20;46.10;;;;;;5012421;28;20784;-86
2023/06/16 18:08:58;;;;;;;4.00;3.57;;;25.00;45.30;;;;;;4984647;28;20461;-82
2023/06/16 18:11:24;;;;;;;4.77;4.33;;;25.00;45.00;;;;;;5000991;28;20652;-82
2023/06/16 18:13:50;;;;;;;6.70;4.63;;;25.00;45.50;;;;;;4996852;28;20182;-82
2023/06/16 18:16:16;;;;;;;7.60;5.33;;;24.90;44.90;;;;;;4996933;28;20991;-82
2023/06/16 18:18:41;;;;;;;4.43;4.00;;;24.90;45.30;;;;;;5000196;28;20942;-82
2023/06/16 18:21:07;;;;;;;7.70;4.43;;;24.70;45.50;;;;;;4998656;28;20400;-80
2023/06/16 18:23:33;;;;;;;5.03;4.03;;;24.70;46.10;;;;;;5005780;28;20541;-85
2023/06/16 18:25:58;;;;;;;7.13;4.67;;;24.60;45.60;;;;;;5005132;28;20218;-84
2023/06/16 18:28:24;;;;;;;4.90;4.00;;;24.50;45.50;;;;;;5001920;28;20470;-84
2023/06/16 18:30:51;;;;;;;10.47;4.30;;;24.50;46.00;;;;;;4995331;28;20320;-85
2023/06/16 18:33:16;;;;;;;5.10;3.60;;;24.50;46.10;;;;;;5000220;28;20289;-82
2023/06/16 18:35:42;;;;;;;6.20;4.80;;;24.40;46.10;;;;;;5001618;28;20445;-83
2023/06/16 18:38:08;;;;;;;4.97;4.00;;;24.20;46.30;;;;;;5003059;28;20886;-83
2023/06/16 18:40:35;;;;;;;4.50;3.90;;;24.10;46.80;;;;;;5001293;28;20186;-83
2023/06/16 18:43:00;;;;;;;6.37;4.40;;;23.90;47.20;;;;;;5001136;28;20430;-83
2023/06/16 18:45:26;;;;;;;5.17;4.77;;;23.80;47.60;;;;;;5000039;28;20441;-85
2023/06/16 18:47:51;;;;;;;4.80;4.30;;;23.80;47.90;;;;;;4997917;28;20307;-83
2023/06/16 18:50:17;;;;;;;5.10;4.30;;;23.70;48.30;;;;;;4996386;28;20278;-82
2023/06/16 18:52:43;;;;;;;6.17;4.30;;;23.60;48.80;;;;;;4995689;28;20631;-83
2023/06/16 18:55:10;;;;;;;3.93;3.53;;;23.60;49.20;;;;;;4995054;28;20511;-82
2023/06/16 18:57:36;;;;;;;7.13;4.40;;;23.50;49.80;;;;;;4999801;28;20304;-85
2023/06/16 19:00:03;;;;;;;5.00;4.37;;;23.30;51.30;;;;;;4979785;28;20460;-83
2023/06/16 19:02:29;;;;;;;4.90;3.97;;;23.10;51.90;;;;;;4999777;28;20452;-82
2023/06/16 19:04:54;;;;;;;9.70;4.80;;;23.50;54.50;;;;;;4997459;28;20445;-83
2023/06/16 19:07:20;;;;;;;3.90;3.53;;;22.50;55.30;;;;;;4980188;28;20632;-86
2023/06/16 19:09:46;;;;;;;6.17;4.70;;;22.20;56.10;;;;;;4980887;28;20262;-84
2023/06/16 19:12:12;;;;;;;8.00;5.07;;;22.10;56.70;;;;;;4995332;28;20631;-84
2023/06/16 19:14:38;;;;;;;5.20;4.10;;;21.90;57.30;;;;;;4984236;28;20185;-84
2023/06/16 19:17:04;;;;;;;4.37;3.50;;;21.30;59.00;;;;;;4982574;28;20441;-84
2023/06/16 19:19:30;;;;;;;5.30;4.13;;;21.20;59.50;;;;;;4981822;28;20446;-83
2023/06/16 19:21:56;;;;;;;4.67;4.00;;;21.00;60.50;;;;;;5001996;28;20575;-80
2023/06/16 19:24:21;;;;;;;5.80;4.10;;;20.90;61.80;;;;;;5006590;28;20524;-80
2023/06/16 19:26:47;;;;;;;4.43;3.63;;;20.70;63.20;;;;;;5006317;28;20202;-82
2023/06/16 19:29:13;;;;;;;5.10;4.07;;;20.60;64.50;;;;;;4990080;28;20305;-82
2023/06/16 19:31:40;;;;;;;4.83;4.30;;;20.50;65.40;;;;;;4995530;28;20189;-82
2023/06/16 19:34:06;;;;;;;4.80;3.63;;;20.40;66.60;;;;;;5009576;28;20851;-81
2023/06/16 19:36:34;;;;;;;5.73;3.27;;;20.30;67.30;;;;;;4990156;28;20438;-79
2023/06/16 19:39:00;;;;;;;5.67;3.87;;;20.10;69.00;;;;;;4986366;28;20465;-82
2023/06/16 19:41:27;;;;;;;3.60;2.97;;;19.90;71.00;;;;;;5011586;28;20437;-81
2023/06/16 19:43:53;;;;;;;7.80;4.00;;;19.70;72.20;;;;;;5008438;28;20503;-82
2023/06/16 19:46:19;;;;;;;5.23;3.50;;;19.60;73.70;;;;;;5009737;28;20532;-83
2023/06/16 19:48:44;;;;;;;4.93;3.73;;;19.50;74.80;;;;;;4988791;28;20465;-83
2023/06/16 19:51:10;;;;;;;8.40;4.00;;;19.40;76.60;;;;;;4989062;28;21045;-84
2023/06/16 19:53:36;;;;;;;5.00;3.30;;;19.30;77.30;;;;;;5009291;28;20192;-83
2023/06/16 19:56:02;;;;;;;6.90;4.23;;;19.20;78.70;;;;;;4994721;28;20432;-82
2023/06/16 19:58:28;;;;;;;3.67;3.13;;;19.10;80.90;;;;;;5008054;28;20465;-83
2023/06/16 20:00:56;;;;;;;6.73;3.87;;;19.00;83.00;;;;;;5009349;28;20476;-82
2023/06/16 20:03:22;;;;;;;4.60;4.13;;;18.80;85.20;;;;;;5008403;28;20178;-82
2023/06/16 20:05:49;;;;;;;10.87;5.27;;;18.70;87.40;;;;;;4990126;28;20437;-85
2023/06/16 20:08:16;;;;;;;5.70;3.10;;;18.60;88.90;;;;;;4992610;28;20460;-82
2023/06/16 20:10:42;;;;;;;3.90;3.03;;;18.60;90.30;;;;;;5007412;28;20849;-82
2023/06/16 20:13:10;;;;;;;5.07;3.80;;;18.50;90.80;;;;;;5004436;28;20475;-82
2023/06/16 20:15:39;;;;;;;4.17;3.17;;;18.50;91.50;;;;;;5006911;28;20426;-83
2023/06/16 20:18:04;;;;;;;3.20;2.67;;;17.60;91.50;;;;;;5010198;28;20452;-82
2023/06/16 20:20:30;;;;;;;6.60;3.57;;;18.30;92.70;;;;;;5005154;28;20523;-83
2023/06/16 20:22:57;;;;;;;5.80;4.17;;;18.30;93.00;;;;;;5007221;28;20445;-83
2023/06/16 20:25:24;;;;;;;5.03;3.63;;;18.30;93.90;;;;;;5011625;28;20190;-83
2023/06/16 20:27:53;;;;;;;7.30;3.00;;;18.10;94.20;;;;;;5007975;28;20546;-83
2023/06/16 20:30:19;;;;;;;6.23;3.60;;;18.10;94.80;;;;;;5008356;28;20448;-80
2023/06/16 20:32:47;;;;;;;5.00;3.00;;;18.00;95.40;;;;;;4984480;28;20525;-83
2023/06/16 20:35:17;;;;;;;3.90;2.87;;;17.90;95.70;;;;;;4990821;28;20442;-83
2023/06/16 20:37:45;;;;;;;4.37;3.40;;;17.90;96.00;;;;;;4992198;28;21244;-84
2023/06/16 20:40:12;;;;;;;3.70;2.70;;;17.90;96.20;;;;;;5005071;28;20445;-84
2023/06/16 20:42:45;;;;;;;2.53;2.33;;;17.90;96.50;;;;;;4987140;28;20445;-83
2023/06/16 20:45:15;;;;;;;4.33;3.27;;;17.90;96.70;;;;;;4990011;28;20453;-82
2023/06/16 20:47:41;;;;;;;8.63;3.63;;;17.90;96.80;;;;;;4989482;28;20503;-83
2023/06/16 20:50:08;;;;;;;4.80;3.57;;;17.80;97.10;;;;;;5003953;28;21141;-83
2023/06/16 20:52:33;;;;;;;4.20;3.00;;;17.70;97.60;;;;;;5005625;28;20998;-84
2023/06/16 20:55:00;;;;;;;4.43;3.50;;;17.70;97.70;;;;;;4981126;28;20449;-82
2023/06/16 20:57:26;;;;;;;4.10;3.00;;;17.60;98.10;;;;;;4981409;28;20213;-85
2023/06/16 20:59:52;;;;;;;4.13;2.93;;;17.60;98.30;;;;;;5003031;28;20440;-84
2023/06/16 21:02:17;;;;;;;5.03;3.63;;;17.50;98.30;;;;;;5009925;28;20206;-81
2023/06/16 21:04:45;;;;;;;4.43;3.63;;;17.50;98.90;;;;;;5009370;28;20188;-82
2023/06/16 21:07:11;;;;;;;4.33;3.40;;;17.40;99.10;;;;;;4993457;28;20206;-83
2023/06/16 21:09:36;;;;;;;4.83;2.90;;;17.40;99.40;;;;;;5008767;28;20523;-84
2023/06/16 21:12:02;;;;;;;5.03;3.50;;;17.30;99.70;;;;;;4995116;28;20185;-83
2023/06/16 21:14:28;;;;;;;2.90;2.50;;;17.30;99.90;;;;;;5014773;28;20171;-83
2023/06/16 21:16:53;;;;;;;4.67;3.03;;;17.30;99.90;;;;;;4996165;28;20512;-83
2023/06/16 21:19:19;;;;;;;5.73;3.20;;;17.30;99.90;;;;;;5013687;28;20564;-85
2023/06/16 21:21:46;;;;;;;5.40;3.20;;;17.30;99.90;;;;;;5012740;28;20190;-84
2023/06/16 21:24:15;;;;;;;7.33;2.83;;;17.20;99.90;;;;;;5011163;28;21236;-84
2023/06/16 21:26:41;;;;;;;5.90;3.50;;;17.10;99.90;;;;;;5012897;28;20869;-81
2023/06/16 21:29:07;;;;;;;5.07;3.87;;;17.10;99.90;;;;;;5010584;28;20465;-83
2023/06/16 21:31:32;;;;;;;3.60;2.70;;;17.10;99.90;;;;;;4993143;28;20178;-79
2023/06/16 21:33:58;;;;;;;5.97;2.77;;;17.00;99.90;;;;;;5008725;28;20503;-83
2023/06/16 21:36:23;;;;;;;4.23;3.73;;;16.90;99.90;;;;;;4993166;28;20193;-83
2023/06/16 21:38:55;;;;;;;4.10;3.13;;;16.90;99.90;;;;;;4987398;28;20210;-83
2023/06/16 21:41:24;;;;;;;4.80;4.00;;;16.90;99.90;;;;;;4993419;28;20190;-81
2023/06/16 21:43:50;;;;;;;3.83;3.00;;;16.90;99.90;;;;;;5008775;28;20899;-83
2023/06/16 21:46:15;;;;;;;3.70;2.87;;;16.80;99.90;;;;;;5005596;28;20560;-82
2023/06/16 21:48:41;;;;;;;5.60;3.17;;;16.80;99.90;;;;;;5004532;28;20301;-84
2023/06/16 21:51:07;;;;;;;5.77;4.20;;;16.80;99.90;;;;;;5004220;28;20774;-84
2023/06/16 21:53:33;;;;;;;5.20;3.60;;;16.70;99.90;;;;;;5004878;28;20425;-83
2023/06/16 21:55:58;;;;;;;6.63;3.83;;;16.70;99.90;;;;;;5003006;28;20455;-83
2023/06/16 21:58:24;;;;;;;3.10;2.83;;;16.70;99.90;;;;;;5004378;28;20602;-83
2023/06/16 22:00:50;;;;;;;5.00;3.77;;;16.70;99.90;;;;;;5000518;28;20229;-83
2023/06/16 22:03:15;;;;;;;3.40;3.10;;;16.80;99.90;;;;;;5002788;28;20179;-84
2023/06/16 22:05:41;;;;;;;9.73;3.40;;;16.70;99.90;;;;;;5001084;28;20189;-82
2023/06/16 22:08:07;;;;;;;4.40;3.43;;;16.70;99.90;;;;;;4986068;28;20214;-83
2023/06/16 22:10:33;;;;;;;6.00;3.87;;;16.60;99.90;;;;;;4999037;28;20190;-84
2023/06/16 22:12:59;;;;;;;4.00;3.60;;;16.60;99.90;;;;;;4994445;28;20460;-84
2023/06/16 22:15:25;;;;;;;3.87;3.20;;;16.50;99.90;;;;;;4993986;28;20433;-83
2023/06/16 22:17:52;;;;;;;4.70;3.53;;;16.40;99.90;;;;;;4977919;28;20290;-83
2023/06/16 22:20:18;;;;;;;5.97;3.43;;;16.40;99.90;;;;;;4999274;28;20436;-83
2023/06/16 22:22:43;;;;;;;5.20;3.90;;;16.40;99.90;;;;;;4999665;28;20801;-84
2023/06/16 22:25:12;;;;;;;4.80;3.87;;;16.40;99.90;;;;;;4995360;28;20194;-83
2023/06/16 22:27:38;;;;;;;4.43;3.53;;;16.30;99.90;;;;;;4996149;28;20607;-82
2023/06/16 22:30:05;;;;;;;6.00;3.57;;;16.30;99.90;;;;;;4995933;28;20468;-85
2023/06/16 22:32:30;;;;;;;6.57;3.07;;;16.30;99.90;;;;;;4995701;28;20950;-84
2023/06/16 22:34:56;;;;;;;4.40;3.40;;;16.30;99.90;;;;;;4996616;28;20528;-82
2023/06/16 22:37:21;;;;;;;4.50;3.10;;;16.50;99.90;;;;;;4992158;28;20241;-82
2023/06/16 22:39:47;;;;;;;7.60;3.53;;;16.50;99.90;;;;;;4993911;28;20225;-84
2023/06/16 22:42:13;;;;;;;4.33;3.87;;;16.50;99.90;;;;;;4994218;28;20189;-84
2023/06/16 22:44:39;;;;;;;6.83;3.60;;;16.40;99.90;;;;;;4993729;28;21143;-83
2023/06/16 22:47:05;;;;;;;6.07;3.03;;;16.30;99.90;;;;;;4997925;28;20264;-84
2023/06/16 22:49:31;;;;;;;6.23;3.53;;;16.30;99.90;;;;;;4995506;28;20232;-83
2023/06/16 22:51:57;;;;;;;6.00;3.63;;;16.30;99.90;;;;;;4976751;28;20532;-83
2023/06/16 22:54:26;;;;;;;3.27;2.93;;;16.20;99.90;;;;;;4989218;28;20475;-83
2023/06/16 22:56:51;;;;;;;4.93;3.45;;;16.10;99.90;;;;;;4998598;28;20484;-83
2023/06/16 22:59:17;;;;;;;6.00;3.83;;;16.10;99.90;;;;;;4998638;28;20261;-80
2023/06/16 23:01:43;;;;;;;4.83;3.70;;;16.00;99.90;;;;;;5000015;28;20208;-83
2023/06/16 23:04:09;;;;;;;5.57;3.77;;;16.10;99.90;;;;;;4983788;28;20201;-81
2023/06/16 23:06:35;;;;;;;5.17;3.60;;;16.00;99.90;;;;;;5002013;28;20245;-84
2023/06/16 23:09:02;;;;;;;4.77;3.57;;;16.00;99.90;;;;;;4999650;28;20449;-85
2023/06/16 23:11:28;;;;;;;7.40;4.20;;;16.10;99.90;;;;;;5002220;28;20425;-86
2023/06/16 23:13:53;;;;;;;5.60;3.63;;;16.30;99.90;;;;;;5008576;28;20440;-83
2023/06/16 23:16:19;;;;;;;6.13;3.67;;;16.30;99.90;;;;;;5008564;28;20530;-85
2023/06/16 23:18:45;;;;;;;6.97;4.07;;;16.30;99.90;;;;;;4991406;28;20213;-87
2023/06/16 23:21:11;;;;;;;5.77;4.13;;;16.20;99.90;;;;;;5009690;28;20186;-86
2023/06/16 23:23:37;;;;;;;5.53;3.53;;;16.20;99.90;;;;;;5007492;28;20437;-86
2023/06/16 23:26:03;;;;;;;4.83;3.23;;;16.20;99.90;;;;;;5009997;28;20528;-86
2023/06/16 23:28:29;;;;;;;4.63;4.17;;;16.20;99.90;;;;;;4993444;28;20512;-85
2023/06/16 23:30:56;;;;;;;4.83;3.33;;;16.10;99.90;;;;;;4993275;28;20949;-84
2023/06/16 23:33:25;;;;;;;5.77;3.60;;;16.00;99.90;;;;;;5007958;28;20177;-84
2023/06/16 23:35:54;;;;;;;5.07;3.70;;;15.90;99.90;;;;;;5007801;28;21151;-85
2023/06/16 23:38:21;;;;;;;3.83;3.40;;;15.80;99.90;;;;;;5009286;28;20445;-85
2023/06/16 23:40:47;;;;;;;8.47;4.20;;;15.80;99.90;;;;;;4993260;28;20441;-85
2023/06/16 23:43:13;;;;;;;6.07;4.70;;;15.80;99.90;;;;;;4988201;28;20436;-85
2023/06/16 23:45:40;;;;;;;13.33;4.00;;;15.90;99.90;;;;;;4988601;28;20444;-86
2023/06/16 23:48:09;;;;;;;9.80;4.03;;;16.00;99.90;;;;;;4982327;28;20248;-85
2023/06/16 23:50:35;;;;;;;4.90;3.60;;;;;;;;;;4998494;28;21241;-84
2023/06/16 23:53:01;;;;;;;4.93;3.77;;;15.90;99.90;;;;;;4984757;28;20445;-85
2023/06/16 23:55:27;;;;;;;4.83;3.80;;;15.80;99.90;;;;;;5001947;28;20448;-83
2023/06/16 23:57:56;;;;;;;8.93;4.67;;;15.80;99.90;;;;;;5005569;28;20289;-85
